Time;durP1;ratioP1;P1;durP2;ratioP2;P2;SDS_P1;SDS_P2;PMS_P1;PMS_P2;Temp;Humidity;BMP_temperature;BMP_pressure;BME280_temperature;BME280_humidity;BME280_pressure;Samples;Min_cycle;Max_cycle;Signal;HPM_P1;HPM_P2
2021/04/28 00:01:43;;;;;;;10.60;7.37;;;11.60;94.80;;;;;;5112447;28;20184;-70
2021/04/28 00:04:09;;;;;;;8.37;7.40;;;11.40;94.50;;;;;;5114095;28;20203;-70
2021/04/28 00:06:34;;;;;;;9.07;7.37;;;11.20;94.30;;;;;;5113408;28;20654;-70
2021/04/28 00:09:03;;;;;;;11.00;7.10;;;11.10;94.80;;;;;;5112213;28;20167;-70
2021/04/28 00:11:29;;;;;;;9.20;7.90;;;11.10;94.90;;;;;;5113814;28;20192;-70
2021/04/28 00:13:54;;;;;;;8.70;7.47;;;11.00;94.80;;;;;;5114225;28;20232;-70
2021/04/28 00:16:21;;;;;;;11.47;6.90;;;11.00;94.60;;;;;;5114176;28;20171;-70
2021/04/28 00:18:49;;;;;;;8.20;7.20;;;10.90;94.80;;;;;;5112788;28;20543;-70
2021/04/28 00:21:15;;;;;;;8.20;7.40;;;11.00;95.00;;;;;;5113832;28;20188;-70
2021/04/28 00:23:41;;;;;;;8.97;7.10;;;10.90;94.60;;;;;;5113717;28;20234;-70
2021/04/28 00:26:08;;;;;;;8.43;7.63;;;10.70;94.70;;;;;;5113956;28;20645;-70
2021/04/28 00:28:34;;;;;;;8.60;7.80;;;10.70;94.90;;;;;;5112428;28;20178;-70
2021/04/28 00:31:00;;;;;;;10.30;7.60;;;10.60;95.20;;;;;;5113693;28;20169;-70
2021/04/28 00:33:26;;;;;;;8.40;7.60;;;10.60;95.40;;;;;;5113588;28;20554;-70
2021/04/28 00:35:51;;;;;;;17.63;8.63;;;10.40;95.40;;;;;;5113583;28;20172;-70
2021/04/28 00:38:17;;;;;;;9.80;6.87;;;10.30;95.70;;;;;;5113625;28;20164;-70
2021/04/28 00:40:43;;;;;;;8.00;7.30;;;10.40;95.60;;;;;;5113822;28;20163;-70
2021/04/28 00:43:09;;;;;;;7.80;7.10;;;10.40;95.50;;;;;;5113490;28;20602;-70
2021/04/28 00:45:35;;;;;;;9.07;7.73;;;10.30;96.00;;;;;;5113620;28;20171;-70
2021/04/28 00:48:03;;;;;;;10.37;7.23;;;10.30;96.10;;;;;;5111213;28;20179;-70
2021/04/28 00:50:35;;;;;;;10.27;7.60;;;10.30;96.10;;;;;;5105870;28;20190;-70
2021/04/28 00:53:02;;;;;;;10.27;7.50;;;10.30;96.40;;;;;;5113395;28;20751;-70
2021/04/28 00:55:28;;;;;;;7.37;6.67;;;10.40;96.50;;;;;;5113401;28;20661;-70
2021/04/28 00:57:54;;;;;;;8.43;7.57;;;10.30;96.30;;;;;;5113384;28;20224;-70
2021/04/28 01:00:22;;;;;;;8.20;7.40;;;10.30;95.90;;;;;;5113698;28;20164;-70
2021/04/28 01:02:49;;;;;;;9.87;8.20;;;10.30;96.00;;;;;;5113271;28;20191;-70
2021/04/28 01:05:16;;;;;;;8.97;8.07;;;10.40;96.50;;;;;;5112354;28;20178;-70
2021/04/28 01:07:43;;;;;;;9.17;7.33;;;10.30;95.00;;;;;;5113344;28;20171;-70
2021/04/28 01:10:13;;;;;;;8.77;7.80;;;10.30;96.30;;;;;;5111973;28;20657;-70
2021/04/28 01:12:40;;;;;;;8.07;7.37;;;10.40;95.20;;;;;;5113337;28;20236;-70
2021/04/28 01:15:10;;;;;;;8.80;7.90;;;10.30;95.40;;;;;;5111823;28;20195;-70
2021/04/28 01:17:36;;;;;;;8.90;7.40;;;10.40;95.50;;;;;;5113751;28;20179;-70
2021/04/28 01:20:04;;;;;;;10.40;7.23;;;10.30;95.60;;;;;;5115455;28;20224;-70
2021/04/28 01:22:37;;;;;;;9.07;7.83;;;10.20;95.60;;;;;;5117203;28;20247;-70
2021/04/28 01:25:05;;;;;;;8.73;7.87;;;10.00;96.30;;;;;;5117090;28;20206;-70
2021/04/28 01:27:32;;;;;;;9.00;8.30;;;9.90;96.10;;;;;;5117140;28;20164;-70
2021/04/28 01:30:00;;;;;;;10.03;8.00;;;9.90;96.20;;;;;;5116363;28;20567;-70
2021/04/28 01:32:26;;;;;;;11.33;8.40;;;9.80;96.10;;;;;;5116956;28;20287;-70
2021/04/28 01:34:53;;;;;;;10.07;8.10;;;9.40;96.70;;;;;;5113833;28;20290;-70
2021/04/28 01:37:19;;;;;;;8.77;7.87;;;9.50;97.20;;;;;;5116914;27;20190;-70
2021/04/28 01:39:47;;;;;;;9.13;8.23;;;9.50;97.00;;;;;;5115639;28;20172;-70
2021/04/28 01:42:13;;;;;;;9.47;7.97;;;9.50;97.00;;;;;;5117174;28;20622;-70
2021/04/28 01:44:39;;;;;;;9.47;8.20;;;9.60;97.20;;;;;;5116853;28;20178;-70
2021/04/28 01:47:05;;;;;;;10.07;8.37;;;9.60;97.50;;;;;;5116829;27;20179;-70
2021/04/28 01:49:31;;;;;;;10.20;8.90;;;9.70;97.20;;;;;;5107762;28;20175;-70
2021/04/28 01:51:58;;;;;;;11.57;9.40;;;9.60;97.90;;;;;;5116623;28;20218;-70
2021/04/28 01:54:24;;;;;;;8.80;8.00;;;9.50;97.20;;;;;;5116494;28;20187;-70
2021/04/28 01:56:52;;;;;;;9.87;8.87;;;9.30;97.90;;;;;;5116657;28;20170;-70
2021/04/28 01:59:20;;;;;;;10.73;8.90;;;9.40;98.00;;;;;;5109719;28;20172;-70
2021/04/28 02:01:50;;;;;;;11.17;8.87;;;9.40;97.80;;;;;;5107845;27;20275;-70
2021/04/28 02:04:16;;;;;;;8.63;7.70;;;9.40;98.10;;;;;;5113047;28;20213;-70
2021/04/28 02:06:42;;;;;;;8.23;7.53;;;9.50;98.10;;;;;;5114267;27;20193;-70
2021/04/28 02:09:09;;;;;;;12.17;6.80;;;9.50;98.60;;;;;;5115668;28;20178;-70
2021/04/28 02:11:34;;;;;;;11.73;7.63;;;9.40;98.20;;;;;;5116139;28;20687;-70
2021/04/28 02:14:01;;;;;;;9.37;8.17;;;9.30;99.20;;;;;;5115169;27;20229;-70
2021/04/28 02:16:29;;;;;;;8.50;7.70;;;9.30;99.20;;;;;;5116250;28;20170;-70
2021/04/28 02:18:56;;;;;;;10.90;7.83;;;9.20;99.20;;;;;;5116101;28;20561;-70
2021/04/28 02:21:22;;;;;;;8.37;7.30;;;9.30;98.90;;;;;;5114855;28;20205;-70
2021/04/28 02:23:48;;;;;;;10.27;8.30;;;9.30;97.80;;;;;;5115954;28;20254;-70
2021/04/28 02:26:14;;;;;;;10.53;8.30;;;9.40;97.70;;;;;;5110444;28;20241;-70
2021/04/28 02:28:40;;;;;;;8.53;7.53;;;9.30;97.80;;;;;;5112146;28;20175;-70
2021/04/28 02:31:05;;;;;;;8.63;7.77;;;9.30;97.50;;;;;;5114967;28;20178;-70
2021/04/28 02:33:35;;;;;;;8.60;7.70;;;9.30;97.70;;;;;;5115845;28;20198;-70
2021/04/28 02:36:01;;;;;;;9.07;8.17;;;9.30;97.60;;;;;;5115894;28;20175;-70
2021/04/28 02:38:35;;;;;;;9.30;8.43;;;9.20;97.50;;;;;;5115835;28;20171;-70
2021/04/28 02:41:02;;;;;;;9.20;8.30;;;9.00;98.00;;;;;;5115667;28;20738;-70
2021/04/28 02:43:28;;;;;;;11.97;8.90;;;9.10;98.40;;;;;;5115779;28;20261;-70
2021/04/28 02:45:56;;;;;;;9.83;8.87;;;9.00;98.30;;;;;;5114355;28;20171;-70
2021/04/28 02:48:25;;;;;;;10.80;9.70;;;8.80;98.40;;;;;;5110466;28;20255;-70
2021/04/28 02:50:51;;;;;;;10.57;8.93;;;8.80;98.60;;;;;;5112221;28;20181;-70
2021/04/28 02:53:17;;;;;;;14.20;9.13;;;8.90;98.90;;;;;;5115366;28;20193;-70
2021/04/28 02:55:44;;;;;;;9.33;8.47;;;8.80;98.80;;;;;;5115374;28;20249;-70
2021/04/28 02:58:12;;;;;;;11.67;9.20;;;8.90;98.70;;;;;;5115616;28;20251;-70
2021/04/28 03:00:38;;;;;;;9.50;8.47;;;8.70;98.70;;;;;;5115358;28;20181;-70
2021/04/28 03:03:04;;;;;;;11.60;9.27;;;8.80;98.90;;;;;;5115139;28;20188;-69
2021/04/28 03:05:30;;;;;;;10.70;8.77;;;8.80;99.50;;;;;;5114981;28;20178;-69
2021/04/28 03:07:58;;;;;;;9.60;8.60;;;8.80;99.30;;;;;;5115254;28;20652;-69
2021/04/28 03:10:24;;;;;;;9.93;8.93;;;8.90;99.10;;;;;;5113246;28;20221;-69
2021/04/28 03:12:49;;;;;;;11.00;8.43;;;8.90;98.60;;;;;;5115086;28;20672;-69
2021/04/28 03:15:18;;;;;;;10.17;8.63;;;8.90;98.80;;;;;;5114780;28;20299;-69
2021/04/28 03:17:44;;;;;;;11.43;8.60;;;8.90;99.00;;;;;;5113784;28;20697;-69
2021/04/28 03:20:12;;;;;;;9.47;8.53;;;8.90;99.20;;;;;;5114963;28;20699;-69
2021/04/28 03:22:39;;;;;;;9.73;7.73;;;8.90;98.70;;;;;;5114920;28;20197;-69
2021/04/28 03:25:07;;;;;;;11.10;8.43;;;9.00;98.40;;;;;;5114804;28;20188;-69
2021/04/28 03:27:33;;;;;;;10.00;8.97;;;9.00;98.50;;;;;;5114818;28;20231;-69
2021/04/28 03:30:00;;;;;;;9.73;8.23;;;9.20;98.70;;;;;;5112041;28;20175;-69
2021/04/28 03:32:25;;;;;;;10.37;8.70;;;9.20;98.00;;;;;;5114606;28;20198;-69
2021/04/28 03:34:51;;;;;;;10.47;8.30;;;9.30;98.10;;;;;;5114491;28;20220;-69
2021/04/28 03:37:17;;;;;;;10.53;8.27;;;9.40;98.20;;;;;;5095634;28;20167;-69
2021/04/28 03:39:43;;;;;;;12.13;8.67;;;9.30;98.40;;;;;;5113968;28;20173;-69
2021/04/28 03:42:09;;;;;;;12.57;8.70;;;9.40;97.70;;;;;;5113436;28;20197;-69
2021/04/28 03:44:35;;;;;;;8.73;7.63;;;9.50;98.00;;;;;;5106584;28;20182;-70
2021/04/28 03:47:01;;;;;;;9.67;8.77;;;9.50;97.90;;;;;;5104598;28;20178;-69
2021/04/28 03:49:27;;;;;;;12.63;8.50;;;9.50;98.20;;;;;;5105473;28;20646;-69
2021/04/28 03:51:53;;;;;;;10.23;8.57;;;9.50;98.10;;;;;;5114338;28;20303;-69
2021/04/28 03:54:19;;;;;;;9.07;8.17;;;9.40;98.50;;;;;;5127942;22;20229;-69
2021/04/28 03:56:46;;;;;;;10.57;9.47;;;9.40;98.40;;;;;;5109016;28;20649;-71
2021/04/28 03:59:12;;;;;;;9.57;8.67;;;9.30;99.40;;;;;;5113105;28;20174;-72
2021/04/28 04:01:39;;;;;;;15.67;9.70;;;9.20;99.30;;;;;;5089889;28;20274;-71
2021/04/28 04:04:05;;;;;;;11.40;9.07;;;9.20;99.80;;;;;;5092026;28;20208;-70
2021/04/28 04:06:32;;;;;;;10.37;9.37;;;9.00;99.90;;;;;;5090863;28;20521;-71
2021/04/28 04:08:58;;;;;;;13.13;10.03;;;9.10;99.90;;;;;;5093316;28;20172;-70
2021/04/28 04:11:24;;;;;;;11.63;10.53;;;9.00;99.90;;;;;;5089593;28;20198;-70
2021/04/28 04:13:50;;;;;;;14.37;10.57;;;8.90;99.90;;;;;;5078417;28;20299;-71
2021/04/28 04:16:15;;;;;;;13.77;10.27;;;9.00;99.90;;;;;;5076453;28;20333;-70
2021/04/28 04:18:41;;;;;;;10.70;9.63;;;9.10;99.90;;;;;;5087989;28;20244;-71
2021/04/28 04:21:07;;;;;;;11.17;10.07;;;9.10;99.90;;;;;;5084873;28;20183;-72
2021/04/28 04:23:33;;;;;;;10.80;9.63;;;9.00;99.90;;;;;;5079574;28;20234;-72
2021/04/28 04:25:58;;;;;;;12.20;9.57;;;8.80;99.90;;;;;;5079789;28;20178;-72
2021/04/28 04:28:24;;;;;;;11.17;9.60;;;8.70;99.90;;;;;;5090577;28;20183;-72
2021/04/28 04:30:51;;;;;;;11.60;10.30;;;8.80;99.90;;;;;;5076893;28;20187;-71
2021/04/28 04:33:18;;;;;;;11.73;10.33;;;8.90;99.90;;;;;;5085321;28;20207;-72
2021/04/28 04:35:44;;;;;;;12.77;10.33;;;8.80;99.90;;;;;;5075263;28;20196;-71
2021/04/28 04:38:11;;;;;;;13.83;10.30;;;8.90;99.90;;;;;;5092878;28;20605;-70
2021/04/28 04:40:36;;;;;;;11.80;9.30;;;9.00;99.90;;;;;;5080491;28;20267;-70
2021/04/28 04:43:02;;;;;;;11.33;9.70;;;9.00;99.90;;;;;;5092317;28;20203;-71
2021/04/28 04:45:29;;;;;;;14.77;10.17;;;9.10;99.90;;;;;;5093465;28;20214;-72
2021/04/28 04:47:55;;;;;;;12.33;10.17;;;9.20;99.90;;;;;;5091932;28;20182;-71
2021/04/28 04:50:21;;;;;;;12.07;9.17;;;9.20;99.90;;;;;;5092601;28;20183;-71
2021/04/28 04:52:46;;;;;;;11.87;10.40;;;9.30;99.90;;;;;;5092358;28;20196;-70
2021/04/28 04:55:13;;;;;;;13.37;9.87;;;9.40;99.90;;;;;;5097886;28;20553;-71
2021/04/28 04:57:38;;;;;;;12.20;9.63;;;9.40;99.90;;;;;;5095833;28;20167;-71
2021/04/28 05:00:05;;;;;;;11.13;10.07;;;9.40;99.90;;;;;;5088462;28;20180;-70
2021/04/28 05:02:31;;;;;;;14.43;9.33;;;9.40;99.90;;;;;;5092506;28;20796;-77
2021/04/28 05:04:57;;;;;;;12.03;9.73;;;9.40;99.90;;;;;;5095301;28;20255;-77
2021/04/28 05:07:22;;;;;;;10.43;9.33;;;9.50;99.90;;;;;;5094595;28;20180;-76
2021/04/28 05:09:48;;;;;;;11.97;9.73;;;9.60;99.90;;;;;;5095933;28;20266;-77
2021/04/28 05:12:14;;;;;;;11.00;9.90;;;9.70;99.90;;;;;;5095887;28;20254;-76
2021/04/28 05:14:40;;;;;;;12.93;10.80;;;9.80;99.90;;;;;;5091541;28;20219;-77
2021/04/28 05:17:06;;;;;;;13.57;9.93;;;9.80;99.90;;;;;;5095651;28;20184;-77
2021/04/28 05:19:31;;;;;;;17.00;9.80;;;9.80;99.90;;;;;;5097665;28;20537;-77
2021/04/28 05:21:57;;;;;;;11.33;10.13;;;9.80;99.90;;;;;;5097288;28;20184;-77
2021/04/28 05:24:22;;;;;;;12.17;9.67;;;9.90;99.90;;;;;;5095984;28;20211;-77
2021/04/28 05:26:48;;;;;;;13.37;10.57;;;9.90;99.90;;;;;;5097386;28;20180;-77
2021/04/28 05:29:14;;;;;;;13.07;10.30;;;10.00;99.90;;;;;;5097574;28;20179;-77
2021/04/28 05:31:40;;;;;;;10.83;9.83;;;10.00;99.90;;;;;;5097336;28;20272;-77
2021/04/28 05:34:05;;;;;;;13.40;10.43;;;10.00;99.90;;;;;;5092774;28;20212;-77
2021/04/28 05:36:31;;;;;;;13.50;10.07;;;10.00;99.90;;;;;;5097058;28;20183;-77
2021/04/28 05:38:59;;;;;;;14.40;9.83;;;10.10;99.90;;;;;;5096074;28;20568;-77
2021/04/28 05:41:58;;;;;;;;;;;;;;;;;;;;;
2021/04/28 05:44:23;;;;;;;10.53;9.40;;;10.10;99.90;;;;;;5096544;28;20203;-77
2021/04/28 05:46:49;;;;;;;10.80;9.70;;;10.10;99.90;;;;;;5097013;28;20694;-77
2021/04/28 05:49:15;;;;;;;11.53;10.13;;;10.20;99.90;;;;;;5087788;28;20203;-77
2021/04/28 05:51:41;;;;;;;13.80;9.07;;;10.20;99.90;;;;;;5095696;28;20180;-77
2021/04/28 05:54:07;;;;;;;9.97;8.93;;;10.30;99.90;;;;;;5096315;28;20341;-77
2021/04/28 05:56:36;;;;;;;11.07;9.33;;;10.30;99.70;;;;;;5097050;28;20636;-77
2021/04/28 05:59:03;;;;;;;11.80;9.50;;;10.30;99.90;;;;;;5096640;28;20200;-77
2021/04/28 06:01:28;;;;;;;11.17;8.60;;;10.30;98.90;;;;;;5096895;28;20285;-77
2021/04/28 06:03:54;;;;;;;12.77;9.10;;;10.30;99.20;;;;;;5095338;28;20688;-77
2021/04/28 06:06:20;;;;;;;12.43;9.40;;;10.40;98.80;;;;;;5096778;28;20184;-77
2021/04/28 06:08:46;;;;;;;9.93;8.90;;;10.40;99.70;;;;;;5097832;28;20176;-77
2021/04/28 06:11:11;;;;;;;13.90;9.63;;;10.40;99.50;;;;;;5095579;28;20207;-77
2021/04/28 06:13:38;;;;;;;12.83;9.27;;;10.50;99.90;;;;;;5096262;28;20200;-77
2021/04/28 06:16:04;;;;;;;10.47;9.10;;;10.50;98.60;;;;;;5097024;28;20626;-77
2021/04/28 06:18:31;;;;;;;11.03;9.60;;;10.50;99.50;;;;;;5097786;28;20279;-77
2021/04/28 06:20:56;;;;;;;9.97;8.20;;;10.50;99.10;;;;;;5097952;28;20183;-77
2021/04/28 06:23:22;;;;;;;11.77;8.77;;;10.60;98.60;;;;;;5097814;28;20570;-77
2021/04/28 06:25:49;;;;;;;13.30;9.47;;;10.60;99.20;;;;;;5096882;28;20177;-77
2021/04/28 06:28:15;;;;;;;9.57;8.67;;;10.60;98.30;;;;;;5098958;28;20622;-77
2021/04/28 06:30:40;;;;;;;14.23;8.90;;;10.60;97.90;;;;;;5097713;28;20233;-78
2021/04/28 06:33:06;;;;;;;13.00;9.00;;;10.60;98.80;;;;;;5101812;28;20200;-78
2021/04/28 06:35:32;;;;;;;10.10;8.70;;;10.70;98.20;;;;;;5098909;28;20261;-78
2021/04/28 06:37:58;;;;;;;11.10;8.83;;;10.70;98.20;;;;;;5097927;28;20184;-78
2021/04/28 06:40:24;;;;;;;14.20;9.17;;;10.80;98.00;;;;;;5099804;28;20183;-78
2021/04/28 06:42:51;;;;;;;10.57;8.67;;;10.80;97.50;;;;;;5097576;28;20172;-78
2021/04/28 06:45:17;;;;;;;10.80;9.03;;;10.70;97.60;;;;;;5100288;28;20180;-78
2021/04/28 06:47:42;;;;;;;9.80;8.77;;;10.80;97.60;;;;;;5098417;28;20183;-78
2021/04/28 06:50:09;;;;;;;10.27;9.27;;;10.80;98.00;;;;;;5093342;28;20191;-78
2021/04/28 06:52:36;;;;;;;9.60;8.60;;;10.90;98.20;;;;;;5102963;28;20196;-78
2021/04/28 06:55:02;;;;;;;11.40;8.50;;;10.90;97.60;;;;;;5098713;28;20218;-78
2021/04/28 06:57:28;;;;;;;11.47;10.30;;;10.90;97.60;;;;;;5098387;28;20247;-78
2021/04/28 06:59:54;;;;;;;12.77;8.50;;;10.90;97.80;;;;;;5096728;28;20196;-78
2021/04/28 07:02:19;;;;;;;9.80;8.70;;;11.00;97.80;;;;;;5097011;28;20680;-77
2021/04/28 07:04:45;;;;;;;9.50;8.43;;;11.00;97.40;;;;;;5098419;28;20196;-78
2021/04/28 07:07:10;;;;;;;11.37;8.70;;;11.00;98.10;;;;;;5096600;28;20173;-78
2021/04/28 07:09:36;;;;;;;9.10;8.20;;;11.00;97.80;;;;;;5098217;28;20184;-78
2021/04/28 07:12:02;;;;;;;9.97;8.47;;;11.00;97.80;;;;;;5096582;28;20173;-78
2021/04/28 07:14:29;;;;;;;11.80;9.13;;;11.00;97.80;;;;;;5097570;28;20233;-78
2021/04/28 07:16:55;;;;;;;10.80;9.10;;;11.10;98.20;;;;;;5097023;28;20183;-78
2021/04/28 07:19:20;;;;;;;12.40;9.53;;;11.20;98.00;;;;;;5098245;28;20600;-78
2021/04/28 07:21:46;;;;;;;11.77;9.33;;;11.20;99.10;;;;;;5094949;28;20185;-78
2021/04/28 07:24:12;;;;;;;11.87;8.73;;;11.30;98.40;;;;;;5097731;28;20208;-78
2021/04/28 07:26:37;;;;;;;10.37;9.13;;;11.40;98.40;;;;;;5097917;28;20184;-78
2021/04/28 07:29:04;;;;;;;11.13;10.00;;;11.50;97.60;;;;;;5097909;28;20635;-78
2021/04/28 07:31:30;;;;;;;13.03;9.30;;;11.50;98.10;;;;;;5096859;28;20180;-78
2021/04/28 07:33:57;;;;;;;12.13;9.50;;;11.50;97.70;;;;;;5097586;28;20693;-78
2021/04/28 07:36:23;;;;;;;17.83;9.20;;;11.50;98.10;;;;;;5098602;28;20199;-78
2021/04/28 07:38:48;;;;;;;17.30;9.13;;;11.60;98.30;;;;;;5098067;28;20173;-78
2021/04/28 07:41:14;;;;;;;17.17;9.43;;;11.60;98.10;;;;;;5096016;28;20634;-78
2021/04/28 07:43:40;;;;;;;11.23;9.63;;;11.60;97.80;;;;;;5095670;28;20196;-78
2021/04/28 07:46:05;;;;;;;16.57;10.77;;;11.70;99.00;;;;;;5097164;28;20175;-78
2021/04/28 07:48:31;;;;;;;14.80;10.47;;;11.80;98.50;;;;;;5091301;28;20173;-78
2021/04/28 07:51:00;;;;;;;22.23;12.37;;;11.90;99.50;;;;;;5096276;28;20204;-78
2021/04/28 07:53:26;;;;;;;25.60;13.67;;;11.90;99.10;;;;;;5097521;28;20229;-78
2021/04/28 07:55:51;;;;;;;15.97;12.17;;;11.90;98.90;;;;;;5098129;28;20187;-78
2021/04/28 07:58:18;;;;;;;15.93;12.17;;;11.90;99.90;;;;;;5096540;28;20184;-77
2021/04/28 08:00:44;;;;;;;14.00;11.10;;;11.90;99.90;;;;;;5095556;28;20214;-77
2021/04/28 08:03:10;;;;;;;21.90;11.60;;;12.00;99.90;;;;;;5094573;28;20200;-77
2021/04/28 08:05:35;;;;;;;18.73;12.50;;;12.00;99.90;;;;;;5096358;28;20638;-77
2021/04/28 08:08:02;;;;;;;18.00;12.20;;;12.00;99.40;;;;;;5098483;28;20582;-77
2021/04/28 08:10:28;;;;;;;18.07;12.67;;;11.90;99.40;;;;;;5094628;28;20655;-77
2021/04/28 08:12:53;;;;;;;18.53;12.70;;;11.90;99.90;;;;;;5095290;28;20191;-77
2021/04/28 08:15:20;;;;;;;17.00;12.33;;;11.90;99.90;;;;;;5093562;28;20196;-77
2021/04/28 08:17:46;;;;;;;16.80;12.70;;;12.00;99.90;;;;;;5095166;28;20180;-77
2021/04/28 08:20:13;;;;;;;16.83;12.67;;;12.00;99.90;;;;;;5093402;28;20532;-77
2021/04/28 08:22:39;;;;;;;17.30;12.73;;;11.90;99.90;;;;;;5095012;28;20176;-77
2021/04/28 08:25:08;;;;;;;18.53;13.70;;;11.90;99.90;;;;;;5093882;28;20301;-77
2021/04/28 08:27:33;;;;;;;18.90;14.20;;;12.00;99.90;;;;;;5094536;28;20216;-77
2021/04/28 08:30:00;;;;;;;18.67;14.47;;;11.80;99.90;;;;;;5094868;28;20176;-77
2021/04/28 08:32:25;;;;;;;14.67;12.67;;;11.80;99.90;;;;;;5095466;28;20634;-77
2021/04/28 08:34:52;;;;;;;13.17;11.87;;;11.80;99.90;;;;;;5097153;28;20262;-77
2021/04/28 08:37:18;;;;;;;13.33;11.97;;;11.80;99.90;;;;;;5094496;28;20180;-77
2021/04/28 08:39:44;;;;;;;13.47;12.07;;;11.80;99.90;;;;;;5094613;28;20180;-77
2021/04/28 08:42:10;;;;;;;13.93;12.47;;;11.90;99.90;;;;;;5094455;28;20569;-77
2021/04/28 08:44:37;;;;;;;21.90;13.10;;;11.70;99.90;;;;;;5095222;28;20204;-77
2021/04/28 08:47:03;;;;;;;15.80;12.97;;;11.80;99.90;;;;;;5093516;28;20630;-77
2021/04/28 08:49:30;;;;;;;14.23;12.70;;;11.80;99.90;;;;;;5084194;28;20237;-77
2021/04/28 08:51:55;;;;;;;16.40;13.13;;;11.80;99.90;;;;;;5090074;28;20699;-77
2021/04/28 08:54:23;;;;;;;19.50;12.73;;;11.90;99.90;;;;;;5093127;28;20212;-77
2021/04/28 08:56:53;;;;;;;17.20;12.17;;;11.90;99.90;;;;;;5094286;28;20243;-76
2021/04/28 08:59:19;;;;;;;15.97;12.20;;;11.90;99.90;;;;;;5094682;28;20205;-77
2021/04/28 09:01:47;;;;;;;13.60;12.17;;;12.00;99.90;;;;;;5094332;28;20177;-77
2021/04/28 09:04:15;;;;;;;16.33;12.90;;;12.00;99.90;;;;;;5093976;28;20201;-78
2021/04/28 09:06:42;;;;;;;16.70;12.90;;;12.00;99.90;;;;;;5092699;28;20188;-77
2021/04/28 09:09:10;;;;;;;16.00;13.30;;;12.00;99.90;;;;;;5089505;28;20184;-77
2021/04/28 09:11:49;;;;;;;19.87;13.90;;;12.00;99.90;;;;;;5081835;28;20185;-77
2021/04/28 09:14:18;;;;;;;17.70;14.20;;;12.10;99.90;;;;;;5079884;28;20605;-78
2021/04/28 09:17:04;;;;;;;21.83;13.50;;;12.10;99.90;;;;;;5080816;28;20180;-77
2021/04/28 09:19:36;;;;;;;19.43;14.33;;;12.20;99.90;;;;;;5088162;28;20627;-77
2021/04/28 09:22:11;;;;;;;19.80;13.93;;;12.20;99.90;;;;;;5079664;28;20169;-77
2021/04/28 09:24:54;;;;;;;17.23;14.60;;;12.40;99.90;;;;;;5080291;28;20204;-77
2021/04/28 09:27:34;;;;;;;27.03;15.17;;;12.50;99.90;;;;;;5080562;28;20195;-76
2021/04/28 09:30:08;;;;;;;20.63;14.80;;;12.60;99.90;;;;;;5085402;28;20196;-77
2021/04/28 09:32:38;;;;;;;22.20;14.60;;;12.60;99.90;;;;;;5091143;28;20194;-77
2021/04/28 09:35:20;;;;;;;22.23;14.77;;;12.60;99.90;;;;;;5085231;28;20201;-77
2021/04/28 09:37:57;;;;;;;20.57;14.40;;;12.60;99.90;;;;;;5093287;28;20181;-77
2021/04/28 09:40:39;;;;;;;16.63;14.33;;;12.70;99.90;;;;;;5081291;28;20181;-77
2021/04/28 09:43:05;;;;;;;24.80;14.83;;;12.80;99.90;;;;;;5090734;28;20640;-77
2021/04/28 09:45:43;;;;;;;18.37;14.97;;;12.90;99.90;;;;;;5091509;28;20180;-77
2021/04/28 09:48:27;;;;;;;20.50;14.87;;;12.90;99.90;;;;;;5089070;28;20641;-76
2021/04/28 09:51:04;;;;;;;19.80;14.73;;;13.00;99.90;;;;;;5092846;28;20613;-76
2021/04/28 09:53:31;;;;;;;19.43;14.17;;;13.10;99.90;;;;;;5084732;28;20235;-79
2021/04/28 09:56:06;;;;;;;;;;;;;;;;;;;;;
2021/04/28 09:58:53;;;;;;;18.77;14.30;;;13.30;99.90;;;;;;5091181;28;20179;-77
2021/04/28 10:01:36;;;;;;;20.90;14.50;;;13.40;99.90;;;;;;5085367;28;20204;-77
2021/04/28 10:04:05;;;;;;;24.03;14.63;;;13.50;99.90;;;;;;5088035;28;20227;-77
2021/04/28 10:06:41;;;;;;;25.27;16.03;;;13.70;99.90;;;;;;5081444;28;20280;-77
2021/04/28 10:09:35;;;;;;;20.53;14.83;;;13.80;99.90;;;;;;5086524;28;20180;-77
2021/04/28 10:12:12;;;;;;;23.10;13.80;;;14.00;99.90;;;;;;5093876;28;20226;-77
2021/04/28 10:14:39;;;;;;;18.27;13.70;;;14.10;99.90;;;;;;5087762;28;20221;-77
2021/04/28 10:17:07;;;;;;;23.87;14.77;;;14.20;99.90;;;;;;5084950;28;20213;-77
2021/04/28 10:19:34;;;;;;;20.47;15.00;;;14.10;99.90;;;;;;5085305;28;20191;-77
2021/04/28 10:22:05;;;;;;;21.13;15.37;;;14.20;99.90;;;;;;5094774;28;20181;-77
2021/04/28 10:24:32;;;;;;;22.83;15.80;;;14.30;99.90;;;;;;5095330;28;20207;-77
2021/04/28 10:26:58;;;;;;;18.87;14.30;;;14.40;99.90;;;;;;5096537;28;20182;-77
2021/04/28 10:29:24;;;;;;;15.90;12.87;;;14.50;99.90;;;;;;5096254;28;20266;-77
2021/04/28 10:31:53;;;;;;;23.47;13.50;;;14.50;99.90;;;;;;5096088;28;20260;-77
2021/04/28 10:34:35;;;;;;;22.10;13.97;;;14.60;99.90;;;;;;5114756;22;20230;-80
2021/04/28 10:37:04;;;;;;;19.50;13.67;;;14.70;99.90;;;;;;5094719;28;20168;-80
2021/04/28 10:39:30;;;;;;;19.97;13.37;;;14.80;99.90;;;;;;5096102;28;20176;-80
2021/04/28 10:41:57;;;;;;;13.90;11.73;;;15.00;99.90;;;;;;5076990;28;20172;-81
2021/04/28 10:44:43;;;;;;;23.50;13.30;;;15.20;99.10;;;;;;5091565;28;20256;-81
2021/04/28 10:47:30;;;;;;;20.03;12.87;;;15.30;99.50;;;;;;5101567;28;20168;-81
2021/04/28 10:50:32;;;;;;;20.80;13.20;;;15.30;99.00;;;;;;5083500;28;20169;-81
2021/04/28 10:53:03;;;;;;;16.50;12.57;;;15.60;99.70;;;;;;5102260;28;20263;-80
2021/04/28 10:55:46;;;;;;;13.87;11.43;;;15.60;98.50;;;;;;5083566;28;20290;-80
2021/04/28 10:58:36;;;;;;;19.10;13.40;;;15.70;99.70;;;;;;5101718;28;20244;-80
2021/04/28 11:01:02;;;;;;;17.70;12.57;;;16.10;99.00;;;;;;5084730;28;20192;-82
2021/04/28 11:03:47;;;;;;;19.77;14.40;;;16.20;99.90;;;;;;5079922;28;20172;-80
2021/04/28 11:06:22;;;;;;;17.53;12.73;;;16.30;98.30;;;;;;5072827;28;20241;-81
2021/04/28 11:09:00;;;;;;;16.80;12.30;;;16.40;98.90;;;;;;5100484;28;20168;-80
2021/04/28 11:14:19;;;;;;;16.00;13.13;;;16.90;98.40;;;;;;5080128;28;20683;-80
2021/04/28 11:16:49;;;;;;;17.13;13.27;;;17.00;98.70;;;;;;5079486;28;20161;-81
2021/04/28 11:19:24;;;;;;;23.17;12.60;;;17.00;97.70;;;;;;5080705;28;20218;-81
2021/04/28 11:22:08;;;;;;;15.10;12.20;;;17.30;99.30;;;;;;5099405;28;20255;-81
2021/04/28 11:24:57;;;;;;;17.83;12.63;;;17.40;96.90;;;;;;5091127;28;20220;-81
2021/04/28 11:27:45;;;;;;;13.60;11.63;;;17.60;97.70;;;;;;5088433;28;20251;-81
2021/04/28 11:30:34;;;;;;;18.07;12.97;;;17.70;97.80;;;;;;5098548;28;20244;-81
2021/04/28 11:33:08;;;;;;;15.47;12.67;;;17.80;96.60;;;;;;5098669;28;20172;-81
2021/04/28 11:35:35;;;;;;;14.17;12.53;;;18.10;97.10;;;;;;5079847;28;20199;-81
2021/04/28 11:38:11;;;;;;;16.40;13.27;;;18.00;97.60;;;;;;5080271;28;20175;-81
2021/04/28 11:40:47;;;;;;;21.90;13.03;;;18.10;97.80;;;;;;5080309;28;20185;-81
2021/04/28 11:43:16;;;;;;;13.03;10.30;;;18.40;98.70;;;;;;5080570;28;20172;-81
2021/04/28 11:45:42;;;;;;;15.33;11.03;;;18.70;96.80;;;;;;5094860;28;20189;-80
2021/04/28 11:48:35;;;;;;;19.80;11.13;;;18.80;96.30;;;;;;5078830;28;20670;-81
2021/04/28 11:51:05;;;;;;;12.27;11.03;;;18.80;95.00;;;;;;5094656;28;20238;-81
2021/04/28 11:53:31;;;;;;;16.43;11.40;;;18.90;96.10;;;;;;5098858;28;20171;-81
2021/04/28 11:55:59;;;;;;;11.23;10.00;;;19.00;96.40;;;;;;5098057;28;20176;-81
2021/04/28 11:58:26;;;;;;;12.57;10.43;;;19.10;97.20;;;;;;5098279;28;20637;-81
2021/04/28 12:01:09;;;;;;;11.03;10.03;;;19.30;96.80;;;;;;5096986;28;20241;-80
2021/04/28 12:03:55;;;;;;;13.20;10.37;;;19.30;94.80;;;;;;5078721;28;20172;-81
2021/04/28 12:06:44;;;;;;;13.03;10.20;;;19.20;94.70;;;;;;5094032;28;20272;-81
2021/04/28 12:09:31;;;;;;;12.83;9.60;;;19.30;94.00;;;;;;5057554;28;20678;-81
2021/04/28 12:12:08;;;;;;;17.70;10.63;;;19.50;94.60;;;;;;5094225;28;20228;-80
2021/04/28 12:14:34;;;;;;;10.03;8.60;;;19.70;94.50;;;;;;5096816;28;20571;-81
2021/04/28 12:17:00;;;;;;;9.80;8.77;;;19.90;93.50;;;;;;5095953;28;20199;-82
2021/04/28 12:19:27;;;;;;;9.40;8.50;;;;;;;;;;5078853;28;20679;-81
2021/04/28 12:21:57;;;;;;;13.50;9.27;;;20.00;93.60;;;;;;5096910;28;20549;-81
2021/04/28 12:24:47;;;;;;;11.60;9.00;;;20.20;93.00;;;;;;5078871;28;20196;-82
2021/04/28 12:27:22;;;;;;;9.60;8.63;;;20.20;93.50;;;;;;5090459;28;20242;-81
2021/04/28 12:30:09;;;;;;;9.77;8.60;;;20.30;91.60;;;;;;5080188;28;20259;-81
2021/04/28 12:32:38;;;;;;;10.67;8.03;;;20.30;91.30;;;;;;5066348;28;20180;-81
2021/04/28 12:35:16;;;;;;;10.30;8.43;;;20.40;93.00;;;;;;5093891;28;20288;-81
2021/04/28 12:38:10;;;;;;;10.87;8.83;;;20.30;91.20;;;;;;5093894;28;20550;-81
2021/04/28 12:40:38;;;;;;;8.67;7.30;;;20.30;92.60;;;;;;5060866;28;20181;-80
2021/04/28 12:43:07;;;;;;;12.30;8.17;;;20.30;90.10;;;;;;5085651;28;20176;-81
2021/04/28 12:45:33;;;;;;;14.50;9.80;;;20.20;90.40;;;;;;5095841;28;20207;-81
2021/04/28 12:48:11;;;;;;;11.43;8.77;;;20.00;91.10;;;;;;5086233;28;20540;-81
2021/04/28 12:50:38;;;;;;;9.00;6.50;;;20.10;90.70;;;;;;5059733;28;20180;-81
2021/04/28 12:53:06;;;;;;;8.37;6.70;;;19.90;90.30;;;;;;5094185;28;20297;-81